createdAt,value
2019-01-18T00:00:01.126Z,3.54
2019-01-18T00:02:34.148Z,3.51
2019-01-18T00:05:05.214Z,3.37
2019-01-18T00:07:35.732Z,3.16
2019-01-18T00:10:09.328Z,3.09
2019-01-18T00:12:39.833Z,2.97
2019-01-18T00:15:10.542Z,2.85
2019-01-18T00:17:41.017Z,2.84
2019-01-18T00:20:12.352Z,2.77
2019-01-18T00:22:42.852Z,2.70
2019-01-18T00:25:14.160Z,2.61
2019-01-18T00:27:44.536Z,2.44
2019-01-18T00:30:15.264Z,2.38
2019-01-18T00:32:45.712Z,2.33
2019-01-18T00:35:16.308Z,2.23
2019-01-18T00:37:46.757Z,2.18
2019-01-18T00:40:17.702Z,2.15
2019-01-18T00:42:48.232Z,2.04
2019-01-18T00:45:19.024Z,2.00
2019-01-18T00:47:49.556Z,1.96
2019-01-18T00:50:20.508Z,1.89
2019-01-18T00:52:51.092Z,1.94
2019-01-18T00:55:21.692Z,1.89
2019-01-18T00:57:52.139Z,1.93
2019-01-18T01:00:28.482Z,1.88
2019-01-18T01:02:59.003Z,1.81
2019-01-18T01:05:30.473Z,1.75
2019-01-18T01:08:01.002Z,1.72
2019-01-18T01:10:31.518Z,1.69
2019-01-18T01:13:01.982Z,1.67
2019-01-18T01:15:32.615Z,1.62
2019-01-18T01:18:03.212Z,1.55
2019-01-18T01:20:33.762Z,1.45
2019-01-18T01:23:04.663Z,1.47
2019-01-18T01:25:35.293Z,1.48
2019-01-18T01:28:07.422Z,1.50
2019-01-18T01:30:37.916Z,1.54
2019-01-18T01:33:08.873Z,1.51
2019-01-18T01:35:39.281Z,1.52
2019-01-18T01:38:09.899Z,1.49
2019-01-18T01:40:40.429Z,1.45
2019-01-18T01:43:10.912Z,1.47
2019-01-18T01:45:41.382Z,1.47
2019-01-18T01:48:12.328Z,1.40
2019-01-18T01:50:42.715Z,1.36
2019-01-18T01:53:13.167Z,1.30
2019-01-18T01:55:43.923Z,1.21
2019-01-18T01:58:14.283Z,1.18
2019-01-18T02:00:44.968Z,1.09
2019-01-18T02:03:15.447Z,1.05
2019-01-18T02:05:45.832Z,1.00
2019-01-18T02:08:16.692Z,0.92
2019-01-18T02:10:47.170Z,0.89
2019-01-18T02:13:17.462Z,0.85
2019-01-18T02:15:48.083Z,0.80
2019-01-18T02:18:18.575Z,0.83
2019-01-18T02:20:48.988Z,0.91
2019-01-18T02:23:19.526Z,0.97
2019-01-18T02:25:50.098Z,1.04
2019-01-18T02:28:20.473Z,1.11
2019-01-18T02:30:52.191Z,1.20
2019-01-18T02:33:22.552Z,1.31
2019-01-18T02:35:53.019Z,1.41
2019-01-18T02:38:23.432Z,1.51
2019-01-18T02:40:53.942Z,1.57
2019-01-18T02:43:24.459Z,1.56
2019-01-18T02:45:54.917Z,1.47
2019-01-18T02:48:25.388Z,1.44
2019-01-18T02:50:55.879Z,1.48
2019-01-18T02:53:26.232Z,1.54
2019-01-18T02:55:56.726Z,1.61
2019-01-18T02:58:27.142Z,1.63
2019-01-18T03:00:57.527Z,1.57
2019-01-18T03:03:27.936Z,1.49
2019-01-18T03:05:58.528Z,1.42
2019-01-18T03:08:28.982Z,1.45
2019-01-18T03:10:59.365Z,1.40
2019-01-18T03:13:29.845Z,1.38
2019-01-18T03:16:00.132Z,1.38
2019-01-18T03:18:30.513Z,1.35
2019-01-18T03:21:01.001Z,1.26
2019-01-18T03:23:31.783Z,1.17
2019-01-18T03:26:02.371Z,1.13
2019-01-18T03:28:32.875Z,1.16
2019-01-18T03:31:03.453Z,1.08
2019-01-18T03:33:35.362Z,1.08
2019-01-18T03:36:06.140Z,0.99
2019-01-18T03:38:36.584Z,0.92
2019-01-18T03:41:07.104Z,0.91
2019-01-18T03:43:37.910Z,0.83
2019-01-18T03:46:08.272Z,0.77
2019-01-18T03:48:38.642Z,0.77
2019-01-18T03:51:09.118Z,0.72
2019-01-18T03:53:39.554Z,0.72
2019-01-18T03:56:10.082Z,0.79
2019-01-18T03:58:40.412Z,0.73
2019-01-18T04:01:10.713Z,0.65
2019-01-18T04:03:41.244Z,0.65
2019-01-18T04:06:11.652Z,0.62
2019-01-18T04:08:41.997Z,0.54
2019-01-18T04:11:12.484Z,0.54
2019-01-18T04:13:42.953Z,0.48
2019-01-18T04:16:13.493Z,0.46
2019-01-18T04:18:43.974Z,0.50
2019-01-18T04:21:14.344Z,0.47
2019-01-18T04:23:47.764Z,0.48
2019-01-18T04:26:18.150Z,0.47
2019-01-18T04:28:48.552Z,0.48
2019-01-18T04:31:18.966Z,0.51
2019-01-18T04:33:49.437Z,0.46
2019-01-18T04:36:19.995Z,0.42
2019-01-18T04:38:50.422Z,0.39
2019-01-18T04:41:20.868Z,0.35
2019-01-18T04:43:51.359Z,0.31
2019-01-18T04:46:21.689Z,0.29
2019-01-18T04:48:52.287Z,0.30
2019-01-18T04:51:22.694Z,0.43
2019-01-18T04:53:53.134Z,0.41
2019-01-18T04:56:23.473Z,0.39
2019-01-18T04:58:53.944Z,0.41
2019-01-18T05:01:24.409Z,0.42
2019-01-18T05:03:54.828Z,0.42
2019-01-18T05:06:25.263Z,0.50
2019-01-18T05:08:55.797Z,0.51
2019-01-18T05:11:26.272Z,0.63
2019-01-18T05:13:56.832Z,0.78
2019-01-18T05:16:27.703Z,0.84
2019-01-18T05:18:58.119Z,0.84
2019-01-18T05:21:28.840Z,0.89
2019-01-18T05:23:59.462Z,0.82
2019-01-18T05:26:29.942Z,0.85
2019-01-18T05:29:00.453Z,0.75
2019-01-18T05:31:31.209Z,0.69
2019-01-18T05:34:01.624Z,0.65
2019-01-18T05:36:32.256Z,0.57
2019-01-18T05:39:03.034Z,0.51
2019-01-18T05:41:33.652Z,0.47
2019-01-18T05:44:04.132Z,0.46
2019-01-18T05:46:34.688Z,0.42
2019-01-18T05:49:05.123Z,0.36
2019-01-18T05:51:36.755Z,0.42
2019-01-18T05:54:07.778Z,0.47
2019-01-18T05:56:39.790Z,0.50
2019-01-18T05:59:10.868Z,0.57
2019-01-18T06:01:41.868Z,0.68
2019-01-18T06:04:12.860Z,0.76
2019-01-18T06:06:44.431Z,0.79
2019-01-18T06:09:16.069Z,0.84
2019-01-18T06:11:46.588Z,0.84
2019-01-18T06:14:17.076Z,0.85
2019-01-18T06:16:47.802Z,0.89
2019-01-18T06:19:18.433Z,0.93
2019-01-18T06:21:48.990Z,0.96
2019-01-18T06:24:20.233Z,0.99
2019-01-18T06:26:50.804Z,1.00
2019-01-18T06:29:21.252Z,1.01
2019-01-18T06:31:52.072Z,1.01
2019-01-18T06:34:22.547Z,1.05
2019-01-18T06:36:53.034Z,1.01
2019-01-18T06:39:23.549Z,1.02
2019-01-18T06:41:55.182Z,1.06
2019-01-18T06:44:26.058Z,1.07
2019-01-18T06:46:56.670Z,1.10
2019-01-18T06:49:27.333Z,1.13
2019-01-18T06:51:57.962Z,1.16
2019-01-18T06:54:28.432Z,1.17
2019-01-18T06:56:59.052Z,1.15
2019-01-18T06:59:29.607Z,1.18
2019-01-18T07:02:00.182Z,1.15
2019-01-18T07:04:30.666Z,1.16
2019-01-18T07:07:01.323Z,1.18
2019-01-18T07:09:31.902Z,1.16
2019-01-18T07:12:02.513Z,1.16
2019-01-18T07:14:33.230Z,1.18
2019-01-18T07:17:03.806Z,1.14
2019-01-18T07:19:34.428Z,1.16
2019-01-18T07:22:05.142Z,1.13
2019-01-18T07:24:35.706Z,1.16
2019-01-18T07:27:06.215Z,1.17
2019-01-18T07:29:36.743Z,1.18
2019-01-18T07:32:07.258Z,1.19
2019-01-18T07:34:37.708Z,1.21
2019-01-18T07:37:08.238Z,1.18
2019-01-18T07:39:38.982Z,1.14
2019-01-18T07:42:09.626Z,1.18
2019-01-18T07:44:40.353Z,1.18
2019-01-18T07:47:10.847Z,1.17
2019-01-18T07:49:41.186Z,1.14
2019-01-18T07:52:11.741Z,1.02
2019-01-18T07:54:42.381Z,0.89
2019-01-18T07:57:12.913Z,0.68
2019-01-18T07:59:43.612Z,0.58
2019-01-18T08:02:14.313Z,0.51
2019-01-18T08:04:44.887Z,0.46
2019-01-18T08:07:15.552Z,0.42
2019-01-18T08:09:46.102Z,0.32
2019-01-18T08:12:16.514Z,0.31
2019-01-18T08:14:47.158Z,0.30
2019-01-18T08:17:17.692Z,0.24
2019-01-18T08:19:48.118Z,0.24
2019-01-18T08:22:18.597Z,0.19
2019-01-18T08:24:49.139Z,0.16
2019-01-18T08:27:19.647Z,0.18
2019-01-18T08:29:50.046Z,0.16
2019-01-18T08:32:20.618Z,0.17
2019-01-18T08:34:51.232Z,0.07
2019-01-18T08:37:22.006Z,0.07
2019-01-18T08:39:52.448Z,0.06
2019-01-18T08:42:23.080Z,0.07
2019-01-18T08:44:53.477Z,0.06
2019-01-18T08:47:24.098Z,0.07
2019-01-18T08:49:54.566Z,0.03
2019-01-18T08:52:25.118Z,-0.12
2019-01-18T08:54:55.645Z,-0.17
2019-01-18T08:57:26.728Z,-0.14
2019-01-18T08:59:57.134Z,-0.11
2019-01-18T09:02:27.700Z,-0.10
2019-01-18T09:04:58.243Z,-0.15
2019-01-18T09:07:28.818Z,-0.16
2019-01-18T09:09:59.289Z,-0.11
2019-01-18T09:12:30.568Z,-0.20
2019-01-18T09:15:01.079Z,-0.17
2019-01-18T09:17:31.692Z,-0.19
2019-01-18T09:20:02.247Z,-0.14
2019-01-18T09:22:32.712Z,-0.12
2019-01-18T09:25:03.152Z,-0.14
2019-01-18T09:27:33.977Z,-0.19
2019-01-18T09:30:05.703Z,-0.15
2019-01-18T09:32:36.223Z,-0.19
2019-01-18T09:35:09.650Z,-0.18
2019-01-18T09:37:40.356Z,-0.31
2019-01-18T09:40:16.147Z,-0.37
2019-01-18T09:42:46.707Z,-0.30
2019-01-18T09:45:17.262Z,-0.36
2019-01-18T09:47:48.118Z,-0.50
2019-01-18T09:50:28.316Z,-0.58
2019-01-18T09:52:59.698Z,-0.56
2019-01-18T09:55:30.196Z,-0.62
2019-01-18T09:58:00.755Z,-0.70
2019-01-18T10:00:34.702Z,-0.58
2019-01-18T10:03:05.805Z,-0.54
2019-01-18T10:05:36.593Z,-0.42
2019-01-18T10:08:12.607Z,-0.42
2019-01-18T10:10:43.448Z,-0.46
2019-01-18T10:13:14.047Z,-0.38
2019-01-18T10:15:46.927Z,-0.41
2019-01-18T10:18:18.239Z,-0.34
2019-01-18T10:20:48.886Z,-0.42
2019-01-18T10:23:19.417Z,-0.47
2019-01-18T10:25:50.062Z,-0.64
2019-01-18T10:28:20.496Z,-0.57
2019-01-18T10:30:51.530Z,-0.59
2019-01-18T10:33:21.985Z,-0.54
2019-01-18T10:35:52.483Z,-0.50
2019-01-18T10:38:22.956Z,-0.47
2019-01-18T10:40:53.458Z,-0.50
2019-01-18T10:43:23.883Z,-0.40
2019-01-18T10:45:54.334Z,-0.35
2019-01-18T10:48:24.802Z,-0.34
2019-01-18T10:50:55.297Z,-0.44
2019-01-18T10:53:26.397Z,-0.52
2019-01-18T10:55:56.977Z,-0.49
2019-01-18T10:58:27.509Z,-0.51
2019-01-18T11:00:58.024Z,-0.53
2019-01-18T11:03:28.587Z,-0.47
2019-01-18T11:05:59.037Z,-0.53
2019-01-18T11:08:29.627Z,-0.44
2019-01-18T11:11:00.262Z,-0.59
2019-01-18T11:13:31.148Z,-0.64
2019-01-18T11:16:01.757Z,-0.58
2019-01-18T11:18:32.398Z,-0.57
2019-01-18T11:21:14.307Z,-0.48
2019-01-18T11:23:44.797Z,-0.47
2019-01-18T11:26:15.498Z,-0.45
2019-01-18T11:28:46.032Z,-0.44
2019-01-18T11:31:16.630Z,-0.49
2019-01-18T11:33:47.269Z,-0.36
2019-01-18T11:36:17.919Z,-0.25
2019-01-18T11:38:48.540Z,-0.13
2019-01-18T11:41:19.152Z,-0.19
2019-01-18T11:43:49.712Z,-0.13
2019-01-18T11:46:20.337Z,-0.22
2019-01-18T11:48:50.877Z,-0.34
2019-01-18T11:51:21.577Z,-0.36
2019-01-18T11:53:51.948Z,-0.32
2019-01-18T11:56:22.417Z,-0.33
2019-01-18T11:58:53.217Z,-0.34
2019-01-18T12:01:23.671Z,-0.33
2019-01-18T12:03:54.210Z,-0.33
2019-01-18T12:06:25.012Z,-0.31
2019-01-18T12:08:55.524Z,-0.21
2019-01-18T12:11:26.102Z,-0.24
2019-01-18T12:13:56.598Z,-0.23
2019-01-18T12:16:27.057Z,-0.26
2019-01-18T12:18:57.694Z,-0.18
2019-01-18T12:21:28.272Z,-0.15
2019-01-18T12:23:58.746Z,-0.23
2019-01-18T12:26:29.085Z,-0.17
2019-01-18T12:28:59.586Z,-0.09
2019-01-18T12:31:30.037Z,-0.07
2019-01-18T12:34:00.378Z,-0.05
2019-01-18T12:36:30.953Z,0.15
2019-01-18T12:39:01.487Z,0.20
2019-01-18T12:41:32.397Z,0.06
2019-01-18T12:44:02.884Z,0.21
2019-01-18T12:46:33.319Z,0.27
2019-01-18T12:49:03.876Z,0.30
2019-01-18T12:51:34.465Z,0.29
2019-01-18T12:54:04.972Z,0.48
2019-01-18T12:56:35.816Z,0.59
2019-01-18T12:59:07.334Z,0.62
2019-01-18T13:01:37.905Z,0.92
2019-01-18T13:04:08.380Z,0.96
2019-01-18T13:06:38.960Z,0.80
2019-01-18T13:09:10.027Z,0.84
2019-01-18T13:11:40.543Z,1.01
2019-01-18T13:14:11.047Z,1.24
2019-01-18T13:16:46.539Z,1.40
2019-01-18T13:19:23.856Z,1.77
2019-01-18T13:21:54.542Z,1.30
2019-01-18T13:24:25.260Z,1.72
2019-01-18T13:26:55.731Z,1.63
2019-01-18T13:29:26.272Z,1.08
2019-01-18T13:31:56.832Z,0.88
2019-01-18T13:34:27.422Z,0.70
2019-01-18T13:36:57.852Z,0.46
2019-01-18T13:39:28.308Z,0.30
2019-01-18T13:41:59.955Z,0.01
2019-01-18T13:44:30.847Z,-0.05
2019-01-18T13:47:01.388Z,-0.13
2019-01-18T13:49:31.928Z,-0.20
2019-01-18T13:52:02.518Z,-0.13
2019-01-18T13:54:33.133Z,-0.13
2019-01-18T13:57:03.597Z,-0.21
2019-01-18T13:59:33.977Z,-0.13
2019-01-18T14:02:04.582Z,-0.09
2019-01-18T14:04:35.148Z,-0.14
2019-01-18T14:07:05.737Z,-0.03
2019-01-18T14:09:36.309Z,-0.09
2019-01-18T14:12:07.078Z,-0.12
2019-01-18T14:14:37.634Z,-0.14
2019-01-18T14:17:08.118Z,-0.23
2019-01-18T14:19:38.849Z,-0.21
2019-01-18T14:22:09.398Z,-0.33
2019-01-18T14:24:39.928Z,-0.33
2019-01-18T14:27:10.403Z,-0.34
2019-01-18T14:29:40.967Z,-0.32
2019-01-18T14:32:11.691Z,-0.25
2019-01-18T14:34:42.352Z,-0.31
2019-01-18T14:37:13.057Z,-0.26
2019-01-18T14:39:43.621Z,-0.25
2019-01-18T14:42:14.217Z,-0.22
2019-01-18T14:44:44.802Z,-0.27
2019-01-18T14:47:15.887Z,-0.23
2019-01-18T14:49:46.552Z,-0.47
2019-01-18T14:52:17.102Z,-0.63
2019-01-18T14:54:47.697Z,-0.67
2019-01-18T14:57:18.232Z,-0.79
2019-01-18T14:59:48.649Z,-0.86
2019-01-18T15:02:19.132Z,-0.88
2019-01-18T15:04:49.798Z,-0.95
2019-01-18T15:07:20.579Z,-1.03
2019-01-18T15:09:51.228Z,-1.07
2019-01-18T15:12:22.803Z,-1.18
2019-01-18T15:14:53.612Z,-1.18
2019-01-18T15:17:24.995Z,-1.27
2019-01-18T15:19:55.621Z,-1.30
2019-01-18T15:22:26.114Z,-1.30
2019-01-18T15:24:56.587Z,-1.30
2019-01-18T15:27:27.103Z,-1.28
2019-01-18T15:29:57.617Z,-1.27
2019-01-18T15:32:36.369Z,-1.35
2019-01-18T15:35:09.434Z,-1.48
2019-01-18T15:37:45.027Z,-1.49
2019-01-18T15:40:19.384Z,-1.57
2019-01-18T15:42:50.100Z,-1.57
2019-01-18T15:45:20.792Z,-1.67
2019-01-18T15:47:51.372Z,-1.59
2019-01-18T15:50:29.072Z,-1.60
2019-01-18T15:52:59.804Z,-1.55
2019-01-18T15:55:31.075Z,-1.56
2019-01-18T15:58:01.799Z,-1.60
2019-01-18T16:00:44.142Z,-1.64
2019-01-18T16:03:16.157Z,-1.71
2019-01-18T16:05:50.498Z,-1.73
2019-01-18T16:08:21.303Z,-1.83
2019-01-18T16:10:51.982Z,-1.90
2019-01-18T16:13:22.652Z,-2.04
2019-01-18T16:16:13.823Z,-2.18
2019-01-18T16:18:44.322Z,-2.37
2019-01-18T16:21:15.300Z,-2.52
2019-01-18T16:23:46.012Z,-2.50
2019-01-18T16:26:16.663Z,-2.52
2019-01-18T16:28:47.216Z,-2.60
2019-01-18T16:31:17.843Z,-2.64
2019-01-18T16:33:48.477Z,-2.72
2019-01-18T16:36:20.160Z,-2.78
2019-01-18T16:38:51.989Z,-2.78
2019-01-18T16:41:34.345Z,-2.87
2019-01-18T16:44:05.199Z,-3.01
2019-01-18T16:46:35.863Z,-3.07
2019-01-18T16:49:09.569Z,-3.16
2019-01-18T16:51:42.366Z,-3.23
2019-01-18T16:54:23.798Z,-3.32
2019-01-18T16:56:54.428Z,-3.36
2019-01-18T16:59:27.296Z,-3.39
2019-01-18T17:01:58.071Z,-3.47
2019-01-18T17:04:29.690Z,-3.43
2019-01-18T17:07:02.725Z,-3.42
2019-01-18T17:09:34.415Z,-3.47
2019-01-18T17:12:06.675Z,-3.47
2019-01-18T17:14:37.302Z,-3.49
2019-01-18T17:17:13.396Z,-3.47
2019-01-18T17:19:44.004Z,-3.47
2019-01-18T17:22:17.549Z,-3.49
2019-01-18T17:24:48.042Z,-3.52
2019-01-18T17:27:22.212Z,-3.57
2019-01-18T17:29:56.265Z,-3.56
2019-01-18T17:32:28.456Z,-3.59
2019-01-18T17:35:09.073Z,-3.60
2019-01-18T17:37:48.317Z,-3.64
2019-01-18T17:40:39.100Z,-3.73
2019-01-18T17:44:04.326Z,-3.81
2019-01-18T17:47:13.425Z,-3.87
2019-01-18T17:50:26.276Z,-3.95
2019-01-18T17:53:44.872Z,-3.99
2019-01-18T17:56:55.985Z,-4.07
2019-01-18T18:00:18.238Z,-4.09
2019-01-18T18:03:36.599Z,-4.05
2019-01-18T18:06:53.462Z,-4.07
2019-01-18T18:09:45.097Z,-4.09
2019-01-18T18:12:58.606Z,-4.10
2019-01-18T18:16:22.879Z,-4.10
2019-01-18T18:19:52.313Z,-4.08
2019-01-18T18:23:19.532Z,-4.10
2019-01-18T18:26:23.842Z,-4.14
2019-01-18T18:29:44.356Z,-4.20
2019-01-18T18:33:15.386Z,-4.25
2019-01-18T18:36:43.367Z,-4.26
2019-01-18T18:39:57.778Z,-4.31
2019-01-18T18:43:18.004Z,-4.37
2019-01-18T18:46:34.808Z,-4.37
2019-01-18T18:49:49.419Z,-4.37
2019-01-18T18:53:22.638Z,-4.41
2019-01-18T18:56:39.367Z,-4.43
2019-01-18T19:00:03.027Z,-4.38
2019-01-18T19:03:22.991Z,-4.40
2019-01-18T19:06:46.823Z,-4.40
2019-01-18T19:10:05.711Z,-4.45
2019-01-18T19:13:22.553Z,-4.47
2019-01-18T19:16:49.688Z,-4.51
2019-01-18T19:20:18.710Z,-4.52
2019-01-18T19:23:27.602Z,-4.57
2019-01-18T19:26:44.732Z,-4.54
2019-01-18T19:30:14.458Z,-4.52
2019-01-18T19:33:29.213Z,-4.49
2019-01-18T19:37:00.409Z,-4.55
2019-01-18T19:40:14.949Z,-4.58
2019-01-18T19:43:30.611Z,-4.62
2019-01-18T19:47:07.006Z,-4.59
2019-01-18T19:50:02.183Z,-4.59
2019-01-18T19:55:56.711Z,-4.47
2019-01-18T19:59:11.346Z,-4.49
2019-01-18T20:02:29.703Z,-4.52
2019-01-18T20:05:52.459Z,-4.54
2019-01-18T20:09:01.192Z,-4.58
2019-01-18T20:12:24.212Z,-4.43
2019-01-18T20:15:45.042Z,-4.54
2019-01-18T20:19:16.390Z,-4.56
2019-01-18T20:22:30.075Z,-4.62
2019-01-18T20:25:38.816Z,-4.69
2019-01-18T20:28:34.820Z,-4.73
2019-01-18T20:31:37.763Z,-4.76
2019-01-18T20:34:46.908Z,-4.80
2019-01-18T20:37:57.472Z,-4.82
2019-01-18T20:40:55.806Z,-4.85
2019-01-18T20:44:21.753Z,-4.84
2019-01-18T20:47:28.342Z,-4.87
2019-01-18T20:50:51.124Z,-4.88
2019-01-18T20:53:59.238Z,-4.81
2019-01-18T20:57:12.862Z,-4.75
2019-01-18T21:00:12.970Z,-4.68
2019-01-18T21:03:27.845Z,-4.73
2019-01-18T21:06:20.731Z,-4.75
2019-01-18T21:09:44.469Z,-4.72
2019-01-18T21:12:36.048Z,-4.75
2019-01-18T21:15:42.647Z,-4.81
2019-01-18T21:19:10.675Z,-4.78
2019-01-18T21:22:39.198Z,-4.81
2019-01-18T21:25:54.588Z,-4.84
2019-01-18T21:29:19.712Z,-4.85
2019-01-18T21:32:35.517Z,-4.73
2019-01-18T21:35:54.792Z,-4.75
2019-01-18T21:39:14.400Z,-4.82
2019-01-18T21:42:29.385Z,-4.84
2019-01-18T21:45:47.077Z,-4.86
2019-01-18T21:48:53.752Z,-4.99
2019-01-18T21:52:16.102Z,-5.08
2019-01-18T21:55:28.797Z,-5.12
2019-01-18T21:58:36.153Z,-5.21
2019-01-18T22:01:33.136Z,-5.27
2019-01-18T22:04:40.128Z,-5.25
2019-01-18T22:07:39.508Z,-5.33
2019-01-18T22:10:57.246Z,-5.28
2019-01-18T22:14:24.332Z,-5.29
2019-01-18T22:17:43.361Z,-5.23
2019-01-18T22:21:06.226Z,-5.18
2019-01-18T22:24:19.580Z,-5.03
2019-01-18T22:27:17.953Z,-4.84
2019-01-18T22:30:31.644Z,-5.06
2019-01-18T22:33:32.641Z,-5.09
2019-01-18T22:36:56.186Z,-5.04
2019-01-18T22:40:13.751Z,-5.06
2019-01-18T22:43:11.936Z,-5.00
2019-01-18T22:46:04.045Z,-5.00
2019-01-18T22:48:58.683Z,-5.01
2019-01-18T22:52:06.004Z,-5.01
2019-01-18T22:55:21.132Z,-5.02
2019-01-18T22:58:50.773Z,-5.05
2019-01-18T23:02:04.261Z,-5.02
2019-01-18T23:05:32.151Z,-5.02
2019-01-18T23:09:00.528Z,-5.02
2019-01-18T23:12:13.601Z,-4.99
2019-01-18T23:15:30.226Z,-4.90
2019-01-18T23:18:19.207Z,-4.86
2019-01-18T23:21:20.236Z,-4.77
2019-01-18T23:24:19.811Z,-4.73
2019-01-18T23:27:25.853Z,-4.74
2019-01-18T23:30:36.601Z,-4.81
2019-01-18T23:33:53.029Z,-4.88
2019-01-18T23:37:05.401Z,-4.91
2019-01-18T23:40:23.087Z,-4.96
2019-01-18T23:43:37.956Z,-5.02
2019-01-18T23:47:06.413Z,-5.08
2019-01-18T23:50:34.344Z,-5.14
2019-01-18T23:53:28.610Z,-5.18
2019-01-18T23:56:26.197Z,-5.29
2019-01-18T23:59:44.081Z,-5.31
